Terminal Aerodrome Forecast
Issued by NWS Wilmington, OH

Current Version | Previous Version | Text Only | Print | Product List | Glossary Off
Versions: 1 2 3 4 5 6 7 8 9 10 11 12 13 14 15 16 17 18 19 20 21

000
FTUS41 KILN 221507 AAA
TAFCMH
TAF AMD
KCMH 221507Z 2215/2312 19007KT 1SM -DZ BR OVC003
     FM221600 19007KT 3SM BR OVC008
     FM221800 20005KT P6SM OVC012
     FM230700 20004KT 5SM BR OVC012=

USA.gov is the U.S. government's official web portal to all federal, state and local government web resources and services.